sensor_id;sensor_type;location;lat;lon;timestamp;pressure;altitude;pressure_sealevel;temperature;humidity
60487;BME280;46327;39.866;-0.072;2022-12-05T00:01:19;101609.58;;;18.87;52.07
60487;BME280;46327;39.866;-0.072;2022-12-05T00:03:48;101613.43;;;18.80;52.12
60487;BME280;46327;39.866;-0.072;2022-12-05T00:06:16;101614.93;;;18.85;51.95
60487;BME280;46327;39.866;-0.072;2022-12-05T00:08:44;101617.38;;;19.11;51.91
60487;BME280;46327;39.866;-0.072;2022-12-05T00:11:12;101620.30;;;19.03;52.00
60487;BME280;46327;39.866;-0.072;2022-12-05T00:13:41;101619.70;;;18.70;52.08
60487;BME280;46327;39.866;-0.072;2022-12-05T00:16:10;101618.24;;;18.68;52.07
60487;BME280;46327;39.866;-0.072;2022-12-05T00:18:37;101617.22;;;18.90;52.10
60487;BME280;46327;39.866;-0.072;2022-12-05T00:21:06;101623.43;;;18.89;52.06
60487;BME280;46327;39.866;-0.072;2022-12-05T00:23:34;101623.05;;;18.84;52.14
60487;BME280;46327;39.866;-0.072;2022-12-05T00:26:03;101620.76;;;18.55;52.11
60487;BME280;46327;39.866;-0.072;2022-12-05T00:28:31;101615.41;;;18.57;52.07
60487;BME280;46327;39.866;-0.072;2022-12-05T00:31:01;101613.54;;;18.55;52.05
60487;BME280;46327;39.866;-0.072;2022-12-05T00:33:29;101614.12;;;18.81;52.00
60487;BME280;46327;39.866;-0.072;2022-12-05T00:36:01;101614.41;;;18.82;51.95
60487;BME280;46327;39.866;-0.072;2022-12-05T00:38:28;101612.81;;;18.59;51.84
60487;BME280;46327;39.866;-0.072;2022-12-05T00:41:00;101609.32;;;18.52;51.91
60487;BME280;46327;39.866;-0.072;2022-12-05T00:43:28;101608.45;;;18.81;51.82
60487;BME280;46327;39.866;-0.072;2022-12-05T00:45:55;101608.58;;;18.76;51.89
60487;BME280;46327;39.866;-0.072;2022-12-05T00:48:22;101605.58;;;18.56;51.72
60487;BME280;46327;39.866;-0.072;2022-12-05T00:50:50;101606.54;;;18.74;51.81
60487;BME280;46327;39.866;-0.072;2022-12-05T00:53:25;101608.48;;;18.84;51.57
60487;BME280;46327;39.866;-0.072;2022-12-05T00:55:52;101611.10;;;18.52;51.59
60487;BME280;46327;39.866;-0.072;2022-12-05T00:58:20;101613.05;;;18.79;51.51
60487;BME280;46327;39.866;-0.072;2022-12-05T01:00:47;101614.24;;;18.79;51.50
60487;BME280;46327;39.866;-0.072;2022-12-05T01:03:14;101613.38;;;18.78;51.49
60487;BME280;46327;39.866;-0.072;2022-12-05T01:05:42;101612.20;;;18.79;51.43
60487;BME280;46327;39.866;-0.072;2022-12-05T01:08:10;101611.89;;;18.54;51.32
60487;BME280;46327;39.866;-0.072;2022-12-05T01:10:37;101612.00;;;18.85;51.19
60487;BME280;46327;39.866;-0.072;2022-12-05T01:13:05;101608.33;;;18.60;51.05
60487;BME280;46327;39.866;-0.072;2022-12-05T01:15:35;101608.00;;;18.84;51.12
60487;BME280;46327;39.866;-0.072;2022-12-05T01:18:03;101609.62;;;18.92;50.93
60487;BME280;46327;39.866;-0.072;2022-12-05T01:20:31;101610.28;;;18.83;51.07
60487;BME280;46327;39.866;-0.072;2022-12-05T01:22:58;101611.60;;;18.76;51.15
60487;BME280;46327;39.866;-0.072;2022-12-05T01:25:26;101614.50;;;18.86;50.93
60487;BME280;46327;39.866;-0.072;2022-12-05T01:27:53;101618.30;;;18.78;51.06
60487;BME280;46327;39.866;-0.072;2022-12-05T01:30:21;101620.47;;;18.78;51.00
60487;BME280;46327;39.866;-0.072;2022-12-05T01:32:48;101622.18;;;18.77;51.01
60487;BME280;46327;39.866;-0.072;2022-12-05T01:35:16;101621.83;;;18.82;50.88
60487;BME280;46327;39.866;-0.072;2022-12-05T01:37:43;101621.82;;;18.88;50.68
60487;BME280;46327;39.866;-0.072;2022-12-05T01:40:10;101624.48;;;18.87;50.70
60487;BME280;46327;39.866;-0.072;2022-12-05T01:42:38;101626.15;;;18.83;50.73
60487;BME280;46327;39.866;-0.072;2022-12-05T01:45:13;101631.56;;;18.79;50.77
60487;BME280;46327;39.866;-0.072;2022-12-05T01:47:42;101635.06;;;18.76;50.79
60487;BME280;46327;39.866;-0.072;2022-12-05T01:50:11;101634.76;;;18.84;50.63
60487;BME280;46327;39.866;-0.072;2022-12-05T01:52:38;101629.57;;;18.85;50.54
60487;BME280;46327;39.866;-0.072;2022-12-05T01:55:11;101631.39;;;18.83;50.50
60487;BME280;46327;39.866;-0.072;2022-12-05T01:57:39;101628.48;;;18.75;50.65
60487;BME280;46327;39.866;-0.072;2022-12-05T02:00:10;101626.72;;;18.85;50.45
60487;BME280;46327;39.866;-0.072;2022-12-05T02:02:38;101630.09;;;18.85;50.37
60487;BME280;46327;39.866;-0.072;2022-12-05T02:05:13;101628.22;;;18.83;50.39
60487;BME280;46327;39.866;-0.072;2022-12-05T02:07:41;101626.35;;;18.82;50.33
60487;BME280;46327;39.866;-0.072;2022-12-05T02:10:10;101625.81;;;18.62;50.15
60487;BME280;46327;39.866;-0.072;2022-12-05T02:12:37;101627.89;;;18.77;50.35
60487;BME280;46327;39.866;-0.072;2022-12-05T02:15:17;101631.51;;;18.99;50.32
60487;BME280;46327;39.866;-0.072;2022-12-05T02:17:54;101637.30;;;18.80;50.20
60487;BME280;46327;39.866;-0.072;2022-12-05T02:20:37;101643.52;;;18.80;50.09
60487;BME280;46327;39.866;-0.072;2022-12-05T02:23:52;101646.69;;;18.85;49.99
60487;BME280;46327;39.866;-0.072;2022-12-05T02:26:42;101653.31;;;18.89;49.90
60487;BME280;46327;39.866;-0.072;2022-12-05T02:29:28;101660.29;;;18.78;50.05
60487;BME280;46327;39.866;-0.072;2022-12-05T02:32:05;101666.40;;;18.80;49.95
60487;BME280;46327;39.866;-0.072;2022-12-05T02:34:39;101664.34;;;18.77;49.95
60487;BME280;46327;39.866;-0.072;2022-12-05T02:37:13;101661.62;;;18.81;49.84
60487;BME280;46327;39.866;-0.072;2022-12-05T02:39:49;101659.94;;;18.72;49.93
60487;BME280;46327;39.866;-0.072;2022-12-05T02:42:23;101662.61;;;18.79;49.79
60487;BME280;46327;39.866;-0.072;2022-12-05T02:44:57;101662.56;;;18.46;49.83
60487;BME280;46327;39.866;-0.072;2022-12-05T02:47:28;101660.87;;;18.72;49.80
60487;BME280;46327;39.866;-0.072;2022-12-05T02:49:58;101661.42;;;18.65;49.79
60487;BME280;46327;39.866;-0.072;2022-12-05T02:52:26;101659.13;;;18.81;49.50
60487;BME280;46327;39.866;-0.072;2022-12-05T02:54:57;101657.14;;;18.74;49.51
60487;BME280;46327;39.866;-0.072;2022-12-05T02:57:24;101661.44;;;18.71;49.51
60487;BME280;46327;39.866;-0.072;2022-12-05T02:59:51;101665.68;;;18.96;49.46
60487;BME280;46327;39.866;-0.072;2022-12-05T03:02:24;101664.48;;;18.66;49.57
60487;BME280;46327;39.866;-0.072;2022-12-05T03:04:53;101664.04;;;18.82;49.28
60487;BME280;46327;39.866;-0.072;2022-12-05T03:07:22;101660.27;;;18.53;49.21
60487;BME280;46327;39.866;-0.072;2022-12-05T03:09:57;101661.51;;;18.80;49.15
60487;BME280;46327;39.866;-0.072;2022-12-05T03:12:27;101662.11;;;18.78;49.15
60487;BME280;46327;39.866;-0.072;2022-12-05T03:14:57;101664.21;;;18.84;49.00
60487;BME280;46327;39.866;-0.072;2022-12-05T03:17:30;101663.88;;;18.82;48.94
60487;BME280;46327;39.866;-0.072;2022-12-05T03:20:04;101663.96;;;18.76;49.02
60487;BME280;46327;39.866;-0.072;2022-12-05T03:22:37;101663.21;;;18.77;48.92
60487;BME280;46327;39.866;-0.072;2022-12-05T03:25:06;101660.95;;;18.43;49.03
60487;BME280;46327;39.866;-0.072;2022-12-05T03:27:42;101665.06;;;18.70;48.98
60487;BME280;46327;39.866;-0.072;2022-12-05T03:30:15;101663.58;;;18.77;48.82
60487;BME280;46327;39.866;-0.072;2022-12-05T03:32:48;101666.13;;;18.74;48.84
60487;BME280;46327;39.866;-0.072;2022-12-05T03:35:24;101662.68;;;18.67;48.96
60487;BME280;46327;39.866;-0.072;2022-12-05T03:37:56;101660.10;;;18.72;48.86
60487;BME280;46327;39.866;-0.072;2022-12-05T03:40:33;101658.48;;;18.56;49.07
60487;BME280;46327;39.866;-0.072;2022-12-05T03:43:08;101663.85;;;18.64;48.92
60487;BME280;46327;39.866;-0.072;2022-12-05T03:45:41;101666.33;;;18.66;48.81
60487;BME280;46327;39.866;-0.072;2022-12-05T03:48:15;101668.27;;;18.90;48.79
60487;BME280;46327;39.866;-0.072;2022-12-05T03:50:46;101666.80;;;18.71;48.70
60487;BME280;46327;39.866;-0.072;2022-12-05T03:53:18;101662.70;;;18.68;48.71
60487;BME280;46327;39.866;-0.072;2022-12-05T03:55:54;101665.84;;;18.36;48.69
60487;BME280;46327;39.866;-0.072;2022-12-05T03:58:28;101671.44;;;18.60;48.72
60487;BME280;46327;39.866;-0.072;2022-12-05T04:01:00;101668.66;;;18.61;48.71
60487;BME280;46327;39.866;-0.072;2022-12-05T04:03:33;101667.86;;;18.72;48.49
60487;BME280;46327;39.866;-0.072;2022-12-05T04:06:04;101671.10;;;18.74;48.32
60487;BME280;46327;39.866;-0.072;2022-12-05T04:08:38;101666.46;;;18.69;48.45
60487;BME280;46327;39.866;-0.072;2022-12-05T04:11:11;101667.07;;;18.67;48.42
60487;BME280;46327;39.866;-0.072;2022-12-05T04:13:42;101663.98;;;18.73;48.30
60487;BME280;46327;39.866;-0.072;2022-12-05T04:16:15;101665.13;;;18.54;48.56
60487;BME280;46327;39.866;-0.072;2022-12-05T04:18:50;101666.46;;;18.58;48.46
60487;BME280;46327;39.866;-0.072;2022-12-05T04:21:20;101666.23;;;18.60;48.38
60487;BME280;46327;39.866;-0.072;2022-12-05T04:23:49;101666.52;;;18.67;48.29
60487;BME280;46327;39.866;-0.072;2022-12-05T04:26:22;101663.31;;;18.62;48.28
60487;BME280;46327;39.866;-0.072;2022-12-05T04:28:57;101670.17;;;18.58;48.30
60487;BME280;46327;39.866;-0.072;2022-12-05T04:31:31;101671.00;;;18.63;48.27
60487;BME280;46327;39.866;-0.072;2022-12-05T04:34:02;101669.86;;;18.65;48.11
60487;BME280;46327;39.866;-0.072;2022-12-05T04:36:32;101666.64;;;18.66;48.12
60487;BME280;46327;39.866;-0.072;2022-12-05T04:39:05;101667.32;;;18.63;48.06
60487;BME280;46327;39.866;-0.072;2022-12-05T04:41:36;101664.48;;;18.50;48.32
60487;BME280;46327;39.866;-0.072;2022-12-05T04:44:08;101656.51;;;18.46;48.40
60487;BME280;46327;39.866;-0.072;2022-12-05T04:46:40;101656.06;;;18.55;48.18
60487;BME280;46327;39.866;-0.072;2022-12-05T04:49:12;101657.21;;;18.56;48.12
60487;BME280;46327;39.866;-0.072;2022-12-05T04:51:44;101656.18;;;18.32;48.03
60487;BME280;46327;39.866;-0.072;2022-12-05T04:54:18;101659.17;;;18.38;48.37
60487;BME280;46327;39.866;-0.072;2022-12-05T04:56:50;101662.85;;;18.46;48.14
60487;BME280;46327;39.866;-0.072;2022-12-05T04:59:18;101662.68;;;18.59;47.85
60487;BME280;46327;39.866;-0.072;2022-12-05T05:01:49;101672.10;;;18.50;48.03
60487;BME280;46327;39.866;-0.072;2022-12-05T05:04:21;101679.32;;;18.81;47.86
60487;BME280;46327;39.866;-0.072;2022-12-05T05:06:52;101681.89;;;18.49;47.97
60487;BME280;46327;39.866;-0.072;2022-12-05T05:09:19;101675.24;;;18.07;48.17
60487;BME280;46327;39.866;-0.072;2022-12-05T05:11:46;101677.98;;;18.48;47.95
60487;BME280;46327;39.866;-0.072;2022-12-05T05:14:14;101686.23;;;18.57;47.75
60487;BME280;46327;39.866;-0.072;2022-12-05T05:16:42;101688.25;;;18.44;47.93
60487;BME280;46327;39.866;-0.072;2022-12-05T05:19:10;101689.48;;;18.70;47.82
60487;BME280;46327;39.866;-0.072;2022-12-05T05:21:39;101690.66;;;18.55;48.06
60487;BME280;46327;39.866;-0.072;2022-12-05T05:24:10;101687.48;;;19.07;47.59
60487;BME280;46327;39.866;-0.072;2022-12-05T05:26:39;101688.42;;;18.56;47.62
60487;BME280;46327;39.866;-0.072;2022-12-05T05:29:08;101687.50;;;18.44;47.80
60487;BME280;46327;39.866;-0.072;2022-12-05T05:31:36;101687.89;;;18.54;47.58
60487;BME280;46327;39.866;-0.072;2022-12-05T05:34:05;101691.76;;;18.46;47.68
60487;BME280;46327;39.866;-0.072;2022-12-05T05:36:32;101702.83;;;18.43;47.66
60487;BME280;46327;39.866;-0.072;2022-12-05T05:39:01;101700.25;;;18.53;47.50
60487;BME280;46327;39.866;-0.072;2022-12-05T05:41:31;101697.84;;;18.59;47.36
60487;BME280;46327;39.866;-0.072;2022-12-05T05:44:00;101697.24;;;18.50;47.45
60487;BME280;46327;39.866;-0.072;2022-12-05T05:46:29;101691.81;;;18.57;47.33
60487;BME280;46327;39.866;-0.072;2022-12-05T05:48:57;101689.41;;;18.42;47.57
60487;BME280;46327;39.866;-0.072;2022-12-05T05:51:25;101689.51;;;18.48;47.39
60487;BME280;46327;39.866;-0.072;2022-12-05T05:53:53;101691.93;;;18.57;47.21
60487;BME280;46327;39.866;-0.072;2022-12-05T05:56:20;101694.21;;;18.53;47.29
60487;BME280;46327;39.866;-0.072;2022-12-05T05:58:53;101695.21;;;18.85;47.15
60487;BME280;46327;39.866;-0.072;2022-12-05T06:01:20;101694.27;;;18.57;47.20
60487;BME280;46327;39.866;-0.072;2022-12-05T06:03:49;101695.52;;;18.52;47.24
60487;BME280;46327;39.866;-0.072;2022-12-05T06:06:16;101693.67;;;18.52;47.23
60487;BME280;46327;39.866;-0.072;2022-12-05T06:08:44;101695.08;;;18.52;47.18
60487;BME280;46327;39.866;-0.072;2022-12-05T06:11:12;101694.04;;;18.55;47.12
60487;BME280;46327;39.866;-0.072;2022-12-05T06:13:40;101691.05;;;18.76;47.21
60487;BME280;46327;39.866;-0.072;2022-12-05T06:16:10;101693.81;;;18.67;47.24
60487;BME280;46327;39.866;-0.072;2022-12-05T06:18:37;101695.52;;;18.06;47.38
60487;BME280;46327;39.866;-0.072;2022-12-05T06:21:05;101699.65;;;18.38;47.23
60487;BME280;46327;39.866;-0.072;2022-12-05T06:23:33;101698.41;;;18.49;47.11
60487;BME280;46327;39.866;-0.072;2022-12-05T06:26:09;101701.08;;;18.50;47.05
60487;BME280;46327;39.866;-0.072;2022-12-05T06:28:37;101706.41;;;18.41;47.16
60487;BME280;46327;39.866;-0.072;2022-12-05T06:31:07;101711.19;;;18.48;47.00
60487;BME280;46327;39.866;-0.072;2022-12-05T06:33:35;101711.17;;;18.67;47.06
60487;BME280;46327;39.866;-0.072;2022-12-05T06:36:03;101711.35;;;18.60;47.14
60487;BME280;46327;39.866;-0.072;2022-12-05T06:38:31;101711.10;;;18.28;47.23
60487;BME280;46327;39.866;-0.072;2022-12-05T06:40:58;101710.85;;;18.35;47.13
60487;BME280;46327;39.866;-0.072;2022-12-05T06:43:25;101716.75;;;18.39;47.03
60487;BME280;46327;39.866;-0.072;2022-12-05T06:45:53;101721.42;;;18.36;47.03
60487;BME280;46327;39.866;-0.072;2022-12-05T06:48:20;101724.11;;;18.38;46.92
60487;BME280;46327;39.866;-0.072;2022-12-05T06:50:49;101724.55;;;18.12;46.94
60487;BME280;46327;39.866;-0.072;2022-12-05T06:53:17;101728.29;;;18.33;46.99
60487;BME280;46327;39.866;-0.072;2022-12-05T06:55:53;101732.91;;;18.42;46.84
60487;BME280;46327;39.866;-0.072;2022-12-05T06:58:21;101735.77;;;18.40;46.79
60487;BME280;46327;39.866;-0.072;2022-12-05T07:00:48;101736.91;;;18.49;46.85
60487;BME280;46327;39.866;-0.072;2022-12-05T07:03:15;101735.11;;;18.69;46.45
60487;BME280;46327;39.866;-0.072;2022-12-05T07:05:43;101735.05;;;18.46;46.83
60487;BME280;46327;39.866;-0.072;2022-12-05T07:08:10;101735.35;;;18.52;46.73
60487;BME280;46327;39.866;-0.072;2022-12-05T07:10:38;101740.85;;;18.69;46.87
60487;BME280;46327;39.866;-0.072;2022-12-05T07:13:05;101744.38;;;18.51;46.99
60487;BME280;46327;39.866;-0.072;2022-12-05T07:15:33;101746.29;;;18.50;47.06
60487;BME280;46327;39.866;-0.072;2022-12-05T07:18:00;101750.75;;;18.41;47.29
60487;BME280;46327;39.866;-0.072;2022-12-05T07:20:27;101755.28;;;18.41;47.41
60487;BME280;46327;39.866;-0.072;2022-12-05T07:23:00;101752.19;;;18.65;47.63
60487;BME280;46327;39.866;-0.072;2022-12-05T07:25:27;101756.67;;;18.32;47.67
60487;BME280;46327;39.866;-0.072;2022-12-05T07:27:54;101758.97;;;18.73;47.53
60487;BME280;46327;39.866;-0.072;2022-12-05T07:30:22;101749.74;;;18.88;47.28
60487;BME280;46327;39.866;-0.072;2022-12-05T07:32:49;101750.94;;;19.01;47.09
60487;BME280;46327;39.866;-0.072;2022-12-05T07:35:16;101751.08;;;19.02;47.06
60487;BME280;46327;39.866;-0.072;2022-12-05T07:37:44;101758.53;;;18.81;47.37
60487;BME280;46327;39.866;-0.072;2022-12-05T07:40:12;101759.42;;;18.96;47.14
60487;BME280;46327;39.866;-0.072;2022-12-05T07:42:39;101767.23;;;19.24;47.01
60487;BME280;46327;39.866;-0.072;2022-12-05T07:45:08;101765.62;;;18.99;46.95
60487;BME280;46327;39.866;-0.072;2022-12-05T07:47:35;101767.03;;;18.93;46.95
60487;BME280;46327;39.866;-0.072;2022-12-05T07:50:03;101771.73;;;18.94;46.96
60487;BME280;46327;39.866;-0.072;2022-12-05T07:52:31;101770.71;;;19.14;46.99
60487;BME280;46327;39.866;-0.072;2022-12-05T07:54:58;101771.47;;;18.79;47.24
60487;BME280;46327;39.866;-0.072;2022-12-05T07:57:26;101774.97;;;18.99;46.83
60487;BME280;46327;39.866;-0.072;2022-12-05T07:59:55;101776.89;;;18.76;46.76
60487;BME280;46327;39.866;-0.072;2022-12-05T08:02:22;101778.74;;;18.92;46.91
60487;BME280;46327;39.866;-0.072;2022-12-05T08:04:50;101779.06;;;18.79;47.10
60487;BME280;46327;39.866;-0.072;2022-12-05T08:07:17;101785.29;;;18.92;46.89
60487;BME280;46327;39.866;-0.072;2022-12-05T08:09:44;101789.97;;;18.55;47.11
60487;BME280;46327;39.866;-0.072;2022-12-05T08:12:11;101794.10;;;18.48;47.54
60487;BME280;46327;39.866;-0.072;2022-12-05T08:14:39;101794.93;;;18.69;47.42
60487;BME280;46327;39.866;-0.072;2022-12-05T08:17:06;101791.60;;;18.57;47.22
60487;BME280;46327;39.866;-0.072;2022-12-05T08:19:33;101790.99;;;18.92;47.08
60487;BME280;46327;39.866;-0.072;2022-12-05T08:22:00;101790.74;;;18.53;47.40
60487;BME280;46327;39.866;-0.072;2022-12-05T08:24:29;101792.77;;;18.86;47.32
60487;BME280;46327;39.866;-0.072;2022-12-05T08:26:57;101796.63;;;18.85;47.29
60487;BME280;46327;39.866;-0.072;2022-12-05T08:29:24;101797.24;;;18.55;47.39
60487;BME280;46327;39.866;-0.072;2022-12-05T08:31:52;101796.07;;;18.72;47.15
60487;BME280;46327;39.866;-0.072;2022-12-05T08:34:20;101796.43;;;18.99;47.06
60487;BME280;46327;39.866;-0.072;2022-12-05T08:36:47;101798.39;;;18.83;47.38
60487;BME280;46327;39.866;-0.072;2022-12-05T08:39:17;101798.79;;;18.90;47.33
60487;BME280;46327;39.866;-0.072;2022-12-05T08:41:45;101802.19;;;18.51;47.63
60487;BME280;46327;39.866;-0.072;2022-12-05T08:44:13;101803.23;;;18.93;47.48
60487;BME280;46327;39.866;-0.072;2022-12-05T08:46:42;101806.75;;;18.91;47.45
60487;BME280;46327;39.866;-0.072;2022-12-05T08:49:11;101805.10;;;19.03;47.30
60487;BME280;46327;39.866;-0.072;2022-12-05T08:51:39;101807.21;;;18.87;47.53
60487;BME280;46327;39.866;-0.072;2022-12-05T08:54:07;101809.01;;;18.94;47.41
60487;BME280;46327;39.866;-0.072;2022-12-05T08:56:35;101811.47;;;18.95;47.47
60487;BME280;46327;39.866;-0.072;2022-12-05T08:59:02;101810.41;;;18.80;47.24
60487;BME280;46327;39.866;-0.072;2022-12-05T09:01:30;101811.34;;;18.74;47.36
60487;BME280;46327;39.866;-0.072;2022-12-05T09:03:59;101809.84;;;19.01;47.26
60487;BME280;46327;39.866;-0.072;2022-12-05T09:06:27;101817.36;;;18.86;47.02
60487;BME280;46327;39.866;-0.072;2022-12-05T09:08:56;101820.98;;;19.10;47.10
60487;BME280;46327;39.866;-0.072;2022-12-05T09:11:26;101820.62;;;19.13;47.16
60487;BME280;46327;39.866;-0.072;2022-12-05T09:13:56;101818.96;;;19.13;47.05
60487;BME280;46327;39.866;-0.072;2022-12-05T09:16:25;101819.19;;;19.06;47.17
60487;BME280;46327;39.866;-0.072;2022-12-05T09:18:53;101813.95;;;19.18;47.01
60487;BME280;46327;39.866;-0.072;2022-12-05T09:21:23;101810.19;;;18.93;46.96
60487;BME280;46327;39.866;-0.072;2022-12-05T09:23:51;101814.03;;;18.97;47.34
60487;BME280;46327;39.866;-0.072;2022-12-05T09:26:20;101817.29;;;19.05;47.13
60487;BME280;46327;39.866;-0.072;2022-12-05T09:28:48;101818.73;;;19.11;47.08
60487;BME280;46327;39.866;-0.072;2022-12-05T09:31:17;101823.61;;;18.93;47.32
60487;BME280;46327;39.866;-0.072;2022-12-05T09:33:45;101826.82;;;19.00;47.31
60487;BME280;46327;39.866;-0.072;2022-12-05T09:36:15;101835.67;;;18.71;47.37
60487;BME280;46327;39.866;-0.072;2022-12-05T09:38:44;101842.63;;;18.97;47.36
60487;BME280;46327;39.866;-0.072;2022-12-05T09:41:22;101840.57;;;18.53;47.29
60487;BME280;46327;39.866;-0.072;2022-12-05T09:43:58;101837.38;;;19.07;47.17
60487;BME280;46327;39.866;-0.072;2022-12-05T09:46:37;101836.02;;;19.22;46.97
60487;BME280;46327;39.866;-0.072;2022-12-05T09:49:10;101836.43;;;18.99;47.38
60487;BME280;46327;39.866;-0.072;2022-12-05T09:51:42;101840.40;;;19.01;47.32
60487;BME280;46327;39.866;-0.072;2022-12-05T09:54:12;101837.05;;;19.16;47.19
60487;BME280;46327;39.866;-0.072;2022-12-05T09:56:43;101834.58;;;19.21;47.04
60487;BME280;46327;39.866;-0.072;2022-12-05T09:59:13;101827.69;;;19.01;47.33
60487;BME280;46327;39.866;-0.072;2022-12-05T10:01:47;101831.37;;;18.92;47.52
60487;BME280;46327;39.866;-0.072;2022-12-05T10:04:26;101831.32;;;19.08;47.24
60487;BME280;46327;39.866;-0.072;2022-12-05T10:07:00;101830.44;;;19.00;47.51
60487;BME280;46327;39.866;-0.072;2022-12-05T10:09:40;101832.38;;;19.07;47.20
60487;BME280;46327;39.866;-0.072;2022-12-05T10:12:17;101836.30;;;19.20;47.10
60487;BME280;46327;39.866;-0.072;2022-12-05T10:14:53;101838.37;;;19.03;47.32
60487;BME280;46327;39.866;-0.072;2022-12-05T10:17:27;101833.96;;;18.89;47.11
60487;BME280;46327;39.866;-0.072;2022-12-05T10:20:01;101841.35;;;18.89;47.59
60487;BME280;46327;39.866;-0.072;2022-12-05T10:22:33;101839.88;;;18.77;46.83
60487;BME280;46327;39.866;-0.072;2022-12-05T10:25:04;101837.71;;;19.30;46.33
60487;BME280;46327;39.866;-0.072;2022-12-05T10:27:35;101832.01;;;19.61;46.24
60487;BME280;46327;39.866;-0.072;2022-12-05T10:30:06;101833.20;;;19.31;46.09
60487;BME280;46327;39.866;-0.072;2022-12-05T10:32:48;101836.13;;;18.75;47.15
60487;BME280;46327;39.866;-0.072;2022-12-05T10:35:19;101835.27;;;18.92;47.01
60487;BME280;46327;39.866;-0.072;2022-12-05T10:37:55;101824.57;;;19.66;46.14
60487;BME280;46327;39.866;-0.072;2022-12-05T10:40:25;101820.05;;;19.73;46.00
60487;BME280;46327;39.866;-0.072;2022-12-05T10:42:54;101822.66;;;19.14;46.42
60487;BME280;46327;39.866;-0.072;2022-12-05T10:45:23;101817.38;;;19.42;46.10
60487;BME280;46327;39.866;-0.072;2022-12-05T10:47:54;101815.69;;;19.67;45.99
60487;BME280;46327;39.866;-0.072;2022-12-05T10:50:24;101813.19;;;19.75;45.90
60487;BME280;46327;39.866;-0.072;2022-12-05T10:52:56;101812.02;;;19.11;46.67
60487;BME280;46327;39.866;-0.072;2022-12-05T10:55:30;101808.72;;;19.26;46.40
60487;BME280;46327;39.866;-0.072;2022-12-05T10:58:17;101809.23;;;19.22;46.33
60487;BME280;46327;39.866;-0.072;2022-12-05T11:00:47;101809.22;;;19.48;46.07
60487;BME280;46327;39.866;-0.072;2022-12-05T11:03:26;101806.09;;;19.03;46.67
60487;BME280;46327;39.866;-0.072;2022-12-05T11:05:56;101801.04;;;19.33;46.24
60487;BME280;46327;39.866;-0.072;2022-12-05T11:08:25;101795.37;;;19.28;46.31
60487;BME280;46327;39.866;-0.072;2022-12-05T11:11:02;101789.55;;;19.63;46.13
60487;BME280;46327;39.866;-0.072;2022-12-05T11:13:31;101783.09;;;19.56;46.27
60487;BME280;46327;39.866;-0.072;2022-12-05T11:16:00;101779.94;;;18.96;46.61
60487;BME280;46327;39.866;-0.072;2022-12-05T11:18:30;101775.13;;;19.11;46.40
60487;BME280;46327;39.866;-0.072;2022-12-05T11:21:09;101776.77;;;19.21;46.63
60487;BME280;46327;39.866;-0.072;2022-12-05T11:23:37;101770.71;;;19.00;46.56
60487;BME280;46327;39.866;-0.072;2022-12-05T11:26:15;101768.85;;;19.31;46.45
60487;BME280;46327;39.866;-0.072;2022-12-05T11:28:43;101766.99;;;19.58;46.14
60487;BME280;46327;39.866;-0.072;2022-12-05T11:31:24;101765.25;;;19.26;46.10
60487;BME280;46327;39.866;-0.072;2022-12-05T11:34:02;101759.68;;;19.26;46.13
60487;BME280;46327;39.866;-0.072;2022-12-05T11:36:38;101751.24;;;19.09;45.92
60487;BME280;46327;39.866;-0.072;2022-12-05T11:39:10;101743.05;;;19.28;45.96
60487;BME280;46327;39.866;-0.072;2022-12-05T11:41:47;101743.04;;;19.28;46.03
60487;BME280;46327;39.866;-0.072;2022-12-05T11:44:38;101745.17;;;19.20;46.13
60487;BME280;46327;39.866;-0.072;2022-12-05T11:47:20;101740.87;;;19.32;45.96
60487;BME280;46327;39.866;-0.072;2022-12-05T11:50:02;101737.98;;;19.07;46.35
60487;BME280;46327;39.866;-0.072;2022-12-05T11:52:49;101731.98;;;19.32;46.30
60487;BME280;46327;39.866;-0.072;2022-12-05T11:55:21;101726.24;;;19.18;46.38
60487;BME280;46327;39.866;-0.072;2022-12-05T11:58:21;101721.16;;;18.90;46.72
60487;BME280;46327;39.866;-0.072;2022-12-05T12:01:03;101720.19;;;19.17;46.43
60487;BME280;46327;39.866;-0.072;2022-12-05T12:03:47;101722.60;;;19.32;46.34
60487;BME280;46327;39.866;-0.072;2022-12-05T12:06:26;101723.74;;;19.06;46.66
60487;BME280;46327;39.866;-0.072;2022-12-05T12:09:07;101721.25;;;19.33;46.17
60487;BME280;46327;39.866;-0.072;2022-12-05T12:11:44;101718.25;;;19.39;46.20
60487;BME280;46327;39.866;-0.072;2022-12-05T12:14:25;101710.20;;;19.39;46.20
60487;BME280;46327;39.866;-0.072;2022-12-05T12:17:05;101706.88;;;19.21;46.51
60487;BME280;46327;39.866;-0.072;2022-12-05T12:19:43;101706.81;;;19.31;46.53
60487;BME280;46327;39.866;-0.072;2022-12-05T12:22:25;101705.39;;;19.10;46.46
60487;BME280;46327;39.866;-0.072;2022-12-05T12:25:09;101696.09;;;19.32;46.54
60487;BME280;46327;39.866;-0.072;2022-12-05T12:27:51;101691.17;;;19.39;46.35
60487;BME280;46327;39.866;-0.072;2022-12-05T12:30:23;101681.72;;;19.71;46.25
60487;BME280;46327;39.866;-0.072;2022-12-05T12:33:02;101683.14;;;18.98;46.81
60487;BME280;46327;39.866;-0.072;2022-12-05T12:35:38;101687.38;;;19.39;46.49
60487;BME280;46327;39.866;-0.072;2022-12-05T12:38:28;101688.53;;;19.17;46.43
60487;BME280;46327;39.866;-0.072;2022-12-05T12:41:09;101682.60;;;19.51;46.23
60487;BME280;46327;39.866;-0.072;2022-12-05T12:43:48;101684.26;;;19.72;46.30
60487;BME280;46327;39.866;-0.072;2022-12-05T12:46:33;101686.10;;;19.34;46.50
60487;BME280;46327;39.866;-0.072;2022-12-05T12:49:17;101683.57;;;19.41;46.33
60487;BME280;46327;39.866;-0.072;2022-12-05T12:51:51;101686.06;;;19.36;46.38
60487;BME280;46327;39.866;-0.072;2022-12-05T12:54:31;101686.37;;;19.42;46.34
60487;BME280;46327;39.866;-0.072;2022-12-05T12:57:10;101684.09;;;19.15;46.99
60487;BME280;46327;39.866;-0.072;2022-12-05T12:59:51;101683.37;;;19.08;46.85
60487;BME280;46327;39.866;-0.072;2022-12-05T13:02:28;101681.68;;;19.15;46.73